createdAt,value
2023-08-24T00:02:18.012Z,18.90
2023-08-24T00:04:45.161Z,18.90
2023-08-24T00:07:12.241Z,18.80
2023-08-24T00:09:39.347Z,18.90
2023-08-24T00:12:07.823Z,18.90
2023-08-24T00:14:35.037Z,19.00
2023-08-24T00:17:02.228Z,18.90
2023-08-24T00:19:29.435Z,18.80
2023-08-24T00:21:56.517Z,18.70
2023-08-24T00:24:23.643Z,18.70
2023-08-24T00:26:51.076Z,18.60
2023-08-24T00:29:18.347Z,18.60
2023-08-24T00:31:45.511Z,18.60
2023-08-24T00:34:12.665Z,18.50
2023-08-24T00:36:40.545Z,18.50
2023-08-24T00:39:07.862Z,18.50
2023-08-24T00:41:35.386Z,18.30
2023-08-24T00:44:03.153Z,18.30
2023-08-24T00:46:32.114Z,18.20
2023-08-24T00:49:01.274Z,18.20
2023-08-24T00:51:28.914Z,18.20
2023-08-24T00:53:58.586Z,18.30
2023-08-24T00:56:25.998Z,18.30
2023-08-24T00:58:55.263Z,18.30
2023-08-24T01:01:22.596Z,18.20
2023-08-24T01:03:49.794Z,18.00
2023-08-24T01:06:17.092Z,18.00
2023-08-24T01:08:44.353Z,18.00
2023-08-24T01:12:03.822Z,18.00
2023-08-24T01:14:52.158Z,17.90
2023-08-24T01:17:25.060Z,17.90
2023-08-24T01:19:52.518Z,18.00
2023-08-24T01:22:29.230Z,18.00
2023-08-24T01:25:18.436Z,18.10
2023-08-24T01:27:46.490Z,18.20
2023-08-24T01:30:14.428Z,18.20
2023-08-24T01:32:42.320Z,18.20
2023-08-24T01:35:10.661Z,18.20
2023-08-24T01:37:39.294Z,18.20
2023-08-24T01:40:34.057Z,18.20
2023-08-24T01:43:09.353Z,18.20
2023-08-24T01:45:36.682Z,18.00
2023-08-24T01:48:05.250Z,18.00
2023-08-24T01:50:33.941Z,18.00
2023-08-24T01:53:02.026Z,17.90
2023-08-24T01:55:29.905Z,17.90
2023-08-24T01:57:57.769Z,17.90
2023-08-24T02:00:25.307Z,17.80
2023-08-24T02:02:52.690Z,17.70
2023-08-24T02:05:20.426Z,17.60
2023-08-24T02:07:52.286Z,17.50
2023-08-24T02:10:19.879Z,17.40
2023-08-24T02:12:47.034Z,17.50
2023-08-24T02:15:14.221Z,17.60
2023-08-24T02:17:41.399Z,17.60
2023-08-24T02:20:09.898Z,17.70
2023-08-24T02:22:37.198Z,17.60
2023-08-24T02:25:06.245Z,17.60
2023-08-24T02:27:34.352Z,17.60
2023-08-24T02:30:01.718Z,17.70
2023-08-24T02:32:29.091Z,17.70
2023-08-24T02:34:56.312Z,17.50
2023-08-24T02:37:23.784Z,17.60
2023-08-24T02:39:51.002Z,17.60
2023-08-24T02:42:18.140Z,17.60
2023-08-24T02:44:45.457Z,17.60
2023-08-24T02:47:12.571Z,17.60
2023-08-24T02:49:40.034Z,17.60
2023-08-24T02:52:07.378Z,17.60
2023-08-24T02:54:34.662Z,17.50
2023-08-24T02:57:01.795Z,17.50
2023-08-24T02:59:28.907Z,17.50
2023-08-24T03:01:56.074Z,17.50
2023-08-24T03:04:23.552Z,17.50
2023-08-24T03:06:53.192Z,17.40
2023-08-24T03:09:20.371Z,17.40
2023-08-24T03:11:47.546Z,17.40
2023-08-24T03:14:14.686Z,17.40
2023-08-24T03:16:41.800Z,17.30
2023-08-24T03:19:08.986Z,17.20
2023-08-24T03:21:36.143Z,17.10
2023-08-24T03:24:05.526Z,17.20
2023-08-24T03:26:33.006Z,17.30
2023-08-24T03:29:00.135Z,17.30
2023-08-24T03:31:27.910Z,17.20
2023-08-24T03:33:55.667Z,17.30
2023-08-24T03:36:23.038Z,17.30
2023-08-24T03:38:50.299Z,17.20
2023-08-24T03:41:17.466Z,17.20
2023-08-24T03:43:44.971Z,17.30
2023-08-24T03:46:12.344Z,17.30
2023-08-24T03:48:42.786Z,17.20
2023-08-24T03:51:10.049Z,17.20
2023-08-24T03:53:37.783Z,17.20
2023-08-24T03:56:07.686Z,17.20
2023-08-24T03:58:37.666Z,17.20
2023-08-24T04:01:05.419Z,17.20
2023-08-24T04:03:32.686Z,17.10
2023-08-24T04:05:59.860Z,17.20
2023-08-24T04:08:26.993Z,17.20
2023-08-24T04:10:54.090Z,17.20
2023-08-24T04:13:21.436Z,17.20
2023-08-24T04:15:48.598Z,17.20
2023-08-24T04:18:15.818Z,17.20
2023-08-24T04:20:43.097Z,17.20
2023-08-24T04:23:11.421Z,17.20
2023-08-24T04:25:41.566Z,17.20
2023-08-24T04:28:08.807Z,17.20
2023-08-24T04:30:35.915Z,17.30
2023-08-24T04:33:05.073Z,17.40
2023-08-24T04:35:37.089Z,17.40
2023-08-24T04:38:04.621Z,17.50
2023-08-24T04:40:36.565Z,17.40
2023-08-24T04:43:04.528Z,17.50
2023-08-24T04:45:31.600Z,17.40
2023-08-24T04:48:01.304Z,17.30
2023-08-24T04:50:28.452Z,17.30
2023-08-24T04:52:55.970Z,17.30
2023-08-24T04:55:23.972Z,17.30
2023-08-24T04:57:51.060Z,17.40
2023-08-24T05:00:19.774Z,17.50
2023-08-24T05:02:46.920Z,17.70
2023-08-24T05:05:17.833Z,17.80
2023-08-24T05:07:44.915Z,17.80
2023-08-24T05:10:12.371Z,17.80
2023-08-24T05:12:39.488Z,17.90
2023-08-24T05:15:07.619Z,17.90
2023-08-24T05:17:34.888Z,18.00
2023-08-24T05:20:02.115Z,18.10
2023-08-24T05:22:29.304Z,18.10
2023-08-24T05:24:56.425Z,18.20
2023-08-24T05:27:23.560Z,18.30
2023-08-24T05:29:50.686Z,18.50
2023-08-24T05:32:18.334Z,18.70
2023-08-24T05:34:47.516Z,18.70
2023-08-24T05:37:14.700Z,18.80
2023-08-24T05:39:41.828Z,19.00
2023-08-24T05:42:10.429Z,19.00
2023-08-24T05:44:37.692Z,19.00
2023-08-24T05:47:05.049Z,18.90
2023-08-24T05:49:32.376Z,19.10
2023-08-24T05:51:59.508Z,19.10
2023-08-24T05:54:26.554Z,19.20
2023-08-24T05:56:53.670Z,19.20
2023-08-24T05:59:22.360Z,19.50
2023-08-24T06:01:49.486Z,19.80
2023-08-24T06:04:16.610Z,20.00
2023-08-24T06:06:43.756Z,20.00
2023-08-24T06:09:11.370Z,20.00
2023-08-24T06:11:38.657Z,20.20
2023-08-24T06:14:05.840Z,20.50
2023-08-24T06:16:32.972Z,20.60
2023-08-24T06:19:00.103Z,20.60
2023-08-24T06:21:27.300Z,20.50
2023-08-24T06:23:54.374Z,20.50
2023-08-24T06:26:21.508Z,20.60
2023-08-24T06:28:48.863Z,20.60
2023-08-24T06:31:17.529Z,20.60
2023-08-24T06:33:44.786Z,20.80
2023-08-24T06:36:13.328Z,21.30
2023-08-24T06:38:40.504Z,21.50
2023-08-24T06:41:12.234Z,21.60
2023-08-24T06:43:40.367Z,21.60
2023-08-24T06:46:11.027Z,21.80
2023-08-24T06:48:38.657Z,21.90
2023-08-24T06:51:05.805Z,22.10
2023-08-24T06:53:33.044Z,22.20
2023-08-24T06:56:00.146Z,22.10
2023-08-24T06:58:27.461Z,22.00
2023-08-24T07:00:55.381Z,22.30
2023-08-24T07:03:22.607Z,22.60
2023-08-24T07:05:50.514Z,22.60
2023-08-24T07:08:17.746Z,22.90
2023-08-24T07:10:45.100Z,23.10
2023-08-24T07:13:12.286Z,23.10
2023-08-24T07:15:39.534Z,23.20
2023-08-24T07:18:08.302Z,23.50
2023-08-24T07:20:36.619Z,23.60
2023-08-24T07:23:04.078Z,23.50
2023-08-24T07:25:31.486Z,23.40
2023-08-24T07:28:02.439Z,23.40
2023-08-24T07:30:33.961Z,23.60
2023-08-24T07:33:04.660Z,23.90
2023-08-24T07:35:32.220Z,23.90
2023-08-24T07:37:59.546Z,23.80
2023-08-24T07:40:27.387Z,23.90
2023-08-24T07:42:57.477Z,24.00
2023-08-24T07:45:25.739Z,24.00
2023-08-24T07:47:53.598Z,24.20
2023-08-24T07:50:21.555Z,24.70
2023-08-24T07:52:48.686Z,24.90
2023-08-24T07:55:17.670Z,25.10
2023-08-24T07:57:44.869Z,25.20
2023-08-24T08:00:14.791Z,25.00
2023-08-24T08:02:42.738Z,24.80
2023-08-24T08:05:13.848Z,24.90
2023-08-24T08:07:41.282Z,25.10
2023-08-24T08:10:09.046Z,24.70
2023-08-24T08:12:36.609Z,25.20
2023-08-24T08:15:04.250Z,25.30
2023-08-24T08:17:32.094Z,25.30
2023-08-24T08:19:59.542Z,25.50
2023-08-24T08:22:26.901Z,25.80
2023-08-24T08:25:04.235Z,25.80
2023-08-24T08:27:31.349Z,26.00
2023-08-24T08:29:58.459Z,25.60
2023-08-24T08:32:28.347Z,25.70
2023-08-24T08:35:01.251Z,25.90
2023-08-24T08:37:29.133Z,25.80
2023-08-24T08:39:56.324Z,26.00
2023-08-24T08:42:23.769Z,25.80
2023-08-24T08:44:53.386Z,25.70
2023-08-24T08:47:23.109Z,26.00
2023-08-24T08:49:50.872Z,26.40
2023-08-24T08:52:18.091Z,26.60
2023-08-24T08:54:45.306Z,26.80
2023-08-24T08:57:13.117Z,27.10
2023-08-24T08:59:40.851Z,27.20
2023-08-24T09:02:16.246Z,27.30
2023-08-24T09:04:46.080Z,27.30
2023-08-24T09:07:16.532Z,27.30
2023-08-24T09:09:44.818Z,27.10
2023-08-24T09:12:12.136Z,27.10
2023-08-24T09:14:39.384Z,27.20
2023-08-24T09:17:06.579Z,27.40
2023-08-24T09:19:36.579Z,27.10
2023-08-24T09:22:07.030Z,27.40
2023-08-24T09:24:37.491Z,27.50
2023-08-24T09:27:22.473Z,27.60
2023-08-24T09:29:54.143Z,27.80
2023-08-24T09:32:35.862Z,28.00
2023-08-24T09:35:10.550Z,28.10
2023-08-24T09:37:39.581Z,28.20
2023-08-24T09:40:09.454Z,28.30
2023-08-24T09:42:43.371Z,28.60
2023-08-24T09:45:16.190Z,28.80
2023-08-24T09:47:53.720Z,29.00
2023-08-24T09:50:20.990Z,28.70
2023-08-24T09:52:52.035Z,29.30
2023-08-24T09:55:25.166Z,29.80
2023-08-24T09:57:56.207Z,30.20
2023-08-24T10:00:25.888Z,30.20
2023-08-24T10:02:55.325Z,30.40
2023-08-24T10:05:38.635Z,30.40
2023-08-24T10:08:10.884Z,30.70
2023-08-24T10:10:41.255Z,30.20
2023-08-24T10:13:20.342Z,30.90
2023-08-24T10:15:49.951Z,31.30
2023-08-24T10:18:19.520Z,31.10
2023-08-24T10:20:48.341Z,31.40
2023-08-24T10:23:17.740Z,31.00
2023-08-24T10:25:47.888Z,30.70
2023-08-24T10:28:17.743Z,31.10
2023-08-24T10:30:46.861Z,31.70
2023-08-24T10:33:15.976Z,31.60
2023-08-24T10:35:45.038Z,31.60
2023-08-24T10:38:28.515Z,31.30
2023-08-24T10:41:04.590Z,30.80
2023-08-24T10:43:38.510Z,31.00
2023-08-24T10:46:13.052Z,30.90
2023-08-24T10:48:43.243Z,31.40
2023-08-24T10:51:22.814Z,31.70
2023-08-24T10:53:54.057Z,32.30
2023-08-24T10:56:22.188Z,32.20
2023-08-24T10:59:19.378Z,32.20
2023-08-24T11:01:56.940Z,32.30
2023-08-24T11:04:24.437Z,32.10
2023-08-24T11:07:05.050Z,30.70
2023-08-24T11:09:50.853Z,30.30
2023-08-24T11:12:18.136Z,30.80
2023-08-24T11:14:56.032Z,30.90
2023-08-24T11:17:24.145Z,31.50
2023-08-24T11:19:54.642Z,31.40
2023-08-24T11:22:25.131Z,31.60
2023-08-24T11:24:52.480Z,31.80
2023-08-24T11:27:22.542Z,32.20
2023-08-24T11:30:01.309Z,31.80
2023-08-24T11:32:28.647Z,31.10
2023-08-24T11:34:56.265Z,30.50
2023-08-24T11:37:23.650Z,30.80
2023-08-24T11:39:50.997Z,31.10
2023-08-24T11:42:19.483Z,31.60
2023-08-24T11:44:50.833Z,32.10
2023-08-24T11:47:21.214Z,33.20
2023-08-24T11:49:48.488Z,33.20
2023-08-24T11:52:17.463Z,32.70
2023-08-24T11:54:45.839Z,31.90
2023-08-24T11:57:12.960Z,31.40
2023-08-24T11:59:44.617Z,31.90
2023-08-24T12:02:12.476Z,32.00
2023-08-24T12:04:44.558Z,32.00
2023-08-24T12:07:16.534Z,31.80
2023-08-24T12:09:44.213Z,31.70
2023-08-24T12:12:20.139Z,31.50
2023-08-24T12:14:48.945Z,31.90
2023-08-24T12:17:18.204Z,32.10
2023-08-24T12:19:59.121Z,32.10
2023-08-24T12:22:26.652Z,31.90
2023-08-24T12:24:53.865Z,31.00
2023-08-24T12:27:23.597Z,31.70
2023-08-24T12:29:51.123Z,32.60
2023-08-24T12:32:26.458Z,33.40
2023-08-24T12:34:55.888Z,34.00
2023-08-24T12:37:23.521Z,33.30
2023-08-24T12:39:50.678Z,32.40
2023-08-24T12:42:17.824Z,32.40
2023-08-24T12:44:45.059Z,32.40
2023-08-24T12:47:12.294Z,32.30
2023-08-24T12:49:39.519Z,32.30
2023-08-24T12:52:06.833Z,32.60
2023-08-24T12:54:33.958Z,33.00
2023-08-24T12:57:01.308Z,34.40
2023-08-24T12:59:28.435Z,36.70
2023-08-24T13:01:55.634Z,38.60
2023-08-24T13:04:22.727Z,40.90
2023-08-24T13:06:49.906Z,40.50
2023-08-24T13:09:17.952Z,39.60
2023-08-24T13:11:45.107Z,38.50
2023-08-24T13:14:12.401Z,40.40
2023-08-24T13:16:39.593Z,41.00
2023-08-24T13:19:06.687Z,40.20
2023-08-24T13:21:33.920Z,41.90
2023-08-24T13:24:01.114Z,42.00
2023-08-24T13:26:28.289Z,41.00
2023-08-24T13:28:55.719Z,41.00
2023-08-24T13:31:22.869Z,39.30
2023-08-24T13:33:49.972Z,39.60
2023-08-24T13:36:17.083Z,40.00
2023-08-24T13:38:45.910Z,40.40
2023-08-24T13:41:13.033Z,41.60
2023-08-24T13:43:41.124Z,41.80
2023-08-24T13:46:08.359Z,42.40
2023-08-24T13:48:35.765Z,43.80
2023-08-24T13:51:03.197Z,44.40
2023-08-24T13:53:30.498Z,42.90
2023-08-24T13:55:57.712Z,43.50
2023-08-24T13:58:24.886Z,44.00
2023-08-24T14:00:59.408Z,43.80
2023-08-24T14:03:26.771Z,45.00
2023-08-24T14:06:01.403Z,45.90
2023-08-24T14:08:28.691Z,46.00
2023-08-24T14:10:55.800Z,45.50
2023-08-24T14:13:23.046Z,46.50
2023-08-24T14:15:53.388Z,46.40
2023-08-24T14:18:21.335Z,47.00
2023-08-24T14:20:49.706Z,45.80
2023-08-24T14:23:16.890Z,45.60
2023-08-24T14:25:44.010Z,45.60
2023-08-24T14:28:11.816Z,45.70
2023-08-24T14:30:41.150Z,44.90
2023-08-24T14:33:08.397Z,44.90
2023-08-24T14:35:35.549Z,45.50
2023-08-24T14:38:02.938Z,45.50
2023-08-24T14:40:30.100Z,44.00
2023-08-24T14:42:57.323Z,44.20
2023-08-24T14:45:24.671Z,44.70
2023-08-24T14:47:52.192Z,46.20
2023-08-24T14:50:19.508Z,46.30
2023-08-24T14:52:46.711Z,47.00
2023-08-24T14:55:14.310Z,46.60
2023-08-24T14:57:41.560Z,46.40
2023-08-24T15:00:11.325Z,46.60
2023-08-24T15:02:38.737Z,46.30
2023-08-24T15:05:06.228Z,47.20
2023-08-24T15:07:33.379Z,46.80
2023-08-24T15:10:00.504Z,46.30
2023-08-24T15:12:27.674Z,44.60
2023-08-24T15:14:59.688Z,45.40
2023-08-24T15:17:28.137Z,45.90
2023-08-24T15:19:56.609Z,46.30
2023-08-24T15:22:25.132Z,45.90
2023-08-24T15:24:52.281Z,45.30
2023-08-24T15:27:19.840Z,45.60
2023-08-24T15:29:46.996Z,44.60
2023-08-24T15:32:14.369Z,45.00
2023-08-24T15:34:41.641Z,45.00
2023-08-24T15:37:08.810Z,44.90
2023-08-24T15:39:41.060Z,44.90
2023-08-24T15:42:08.981Z,45.80
2023-08-24T15:44:36.235Z,45.10
2023-08-24T15:47:03.687Z,44.80
2023-08-24T15:49:30.863Z,44.80
2023-08-24T15:51:58.071Z,44.90
2023-08-24T15:54:26.188Z,44.00
2023-08-24T15:56:56.772Z,42.80
2023-08-24T15:59:24.381Z,41.60
2023-08-24T16:01:52.631Z,40.40
2023-08-24T16:04:19.965Z,40.00
2023-08-24T16:06:47.411Z,40.80
2023-08-24T16:09:14.543Z,41.30
2023-08-24T16:11:41.640Z,41.20
2023-08-24T16:14:12.430Z,40.80
2023-08-24T16:16:39.695Z,40.00
2023-08-24T16:19:06.856Z,39.60
2023-08-24T16:21:33.880Z,38.80
2023-08-24T16:24:02.006Z,37.60
2023-08-24T16:26:29.775Z,36.10
2023-08-24T16:28:57.486Z,35.60
2023-08-24T16:31:24.679Z,35.20
2023-08-24T16:33:51.770Z,34.80
2023-08-24T16:36:18.919Z,34.50
2023-08-24T16:38:46.128Z,34.10
2023-08-24T16:41:13.217Z,34.30
2023-08-24T16:43:40.345Z,34.70
2023-08-24T16:46:07.484Z,34.60
2023-08-24T16:48:34.827Z,34.30
2023-08-24T16:51:01.939Z,34.20
2023-08-24T16:53:29.138Z,34.10
2023-08-24T16:55:56.996Z,33.70
2023-08-24T16:58:24.244Z,33.20
2023-08-24T17:00:51.586Z,33.10
2023-08-24T17:03:18.911Z,32.90
2023-08-24T17:05:46.068Z,33.50
2023-08-24T17:08:13.190Z,34.50
2023-08-24T17:10:40.672Z,34.40
2023-08-24T17:13:08.031Z,35.50
2023-08-24T17:15:35.159Z,36.00
2023-08-24T17:18:02.805Z,35.70
2023-08-24T17:20:30.474Z,34.60
2023-08-24T17:22:57.622Z,33.30
2023-08-24T17:25:24.866Z,32.70
2023-08-24T17:27:52.698Z,32.10
2023-08-24T17:30:20.343Z,31.60
2023-08-24T17:32:47.717Z,31.30
2023-08-24T17:35:16.362Z,31.10
2023-08-24T17:37:43.494Z,30.80
2023-08-24T17:40:13.918Z,30.50
2023-08-24T17:42:41.651Z,30.10
2023-08-24T17:45:10.062Z,29.90
2023-08-24T17:47:37.306Z,29.80
2023-08-24T17:50:05.927Z,29.60
2023-08-24T17:52:34.120Z,29.40
2023-08-24T17:55:04.652Z,29.20
2023-08-24T17:57:31.844Z,28.80
2023-08-24T17:59:59.490Z,28.50
2023-08-24T18:02:28.779Z,28.30
2023-08-24T18:04:56.018Z,28.10
2023-08-24T18:07:23.243Z,27.90
2023-08-24T18:09:50.396Z,27.90
2023-08-24T18:12:17.568Z,27.80
2023-08-24T18:14:44.799Z,27.70
2023-08-24T18:17:12.034Z,27.70
2023-08-24T18:19:40.160Z,27.60
2023-08-24T18:22:07.390Z,27.50
2023-08-24T18:24:34.909Z,27.30
2023-08-24T18:27:02.212Z,27.20
2023-08-24T18:29:29.422Z,27.00
2023-08-24T18:31:56.617Z,27.00
2023-08-24T18:34:26.411Z,26.90
2023-08-24T18:36:53.645Z,26.70
2023-08-24T18:39:20.827Z,26.70
2023-08-24T18:41:49.508Z,26.60
2023-08-24T18:44:19.008Z,26.50
2023-08-24T18:46:48.030Z,26.40
2023-08-24T18:49:17.016Z,26.30
2023-08-24T18:51:46.880Z,26.20
2023-08-24T18:54:14.050Z,26.10
2023-08-24T18:56:41.192Z,26.00
2023-08-24T18:59:08.318Z,25.90
2023-08-24T19:01:37.172Z,25.70
2023-08-24T19:04:04.534Z,25.60
2023-08-24T19:06:38.383Z,25.40
2023-08-24T19:09:13.758Z,25.40
2023-08-24T19:11:40.959Z,25.40
2023-08-24T19:14:08.123Z,25.30
2023-08-24T19:16:35.199Z,25.30
2023-08-24T19:19:02.651Z,25.30
2023-08-24T19:21:31.583Z,25.30
2023-08-24T19:23:58.817Z,25.10
2023-08-24T19:26:26.044Z,25.00
2023-08-24T19:28:53.506Z,25.00
2023-08-24T19:31:21.020Z,24.90
2023-08-24T19:33:50.094Z,24.90
2023-08-24T19:36:17.201Z,24.90
2023-08-24T19:38:44.377Z,24.90
2023-08-24T19:41:12.478Z,25.00
2023-08-24T19:43:39.661Z,25.00
2023-08-24T19:46:07.242Z,24.90
2023-08-24T19:48:34.644Z,25.00
2023-08-24T19:51:01.955Z,25.00
2023-08-24T19:53:29.173Z,25.00
2023-08-24T19:55:56.394Z,25.00
2023-08-24T19:58:23.748Z,25.00
2023-08-24T20:00:57.629Z,25.00
2023-08-24T20:03:25.093Z,24.90
2023-08-24T20:05:58.777Z,24.80
2023-08-24T20:08:29.358Z,24.80
2023-08-24T20:10:57.987Z,24.70
2023-08-24T20:13:25.340Z,24.60
2023-08-24T20:15:52.421Z,24.60
2023-08-24T20:18:19.636Z,24.50
2023-08-24T20:20:47.861Z,24.40
2023-08-24T20:23:15.016Z,24.30
2023-08-24T20:25:43.017Z,24.20
2023-08-24T20:28:10.153Z,24.10
2023-08-24T20:30:41.210Z,24.00
2023-08-24T20:33:08.542Z,24.00
2023-08-24T20:35:45.108Z,23.90
2023-08-24T20:38:12.228Z,23.80
2023-08-24T20:40:39.449Z,23.70
2023-08-24T20:43:06.562Z,23.70
2023-08-24T20:45:33.690Z,23.70
2023-08-24T20:48:00.897Z,23.60
2023-08-24T20:50:28.285Z,23.60
2023-08-24T20:52:55.421Z,23.50
2023-08-24T20:55:22.517Z,23.50
2023-08-24T20:57:49.635Z,23.40
2023-08-24T21:00:16.951Z,23.30
2023-08-24T21:02:44.184Z,23.20
2023-08-24T21:05:14.078Z,23.10
2023-08-24T21:07:41.280Z,23.10
2023-08-24T21:10:09.003Z,23.10
2023-08-24T21:12:36.145Z,23.20
2023-08-24T21:15:03.462Z,23.30
2023-08-24T21:17:30.705Z,23.30
2023-08-24T21:19:58.731Z,23.30
2023-08-24T21:22:26.161Z,23.40
2023-08-24T21:24:53.397Z,23.40
2023-08-24T21:27:20.515Z,23.40
2023-08-24T21:29:50.771Z,23.50
2023-08-24T21:32:18.054Z,23.50
2023-08-24T21:34:45.237Z,23.50
2023-08-24T21:37:12.339Z,23.50
2023-08-24T21:39:39.962Z,23.50
2023-08-24T21:42:07.274Z,23.60
2023-08-24T21:44:34.446Z,23.60
2023-08-24T21:47:01.986Z,23.60
2023-08-24T21:49:29.109Z,23.60
2023-08-24T21:51:56.273Z,23.50
2023-08-24T21:54:23.424Z,23.50
2023-08-24T21:56:50.605Z,23.50
2023-08-24T21:59:17.761Z,23.40
2023-08-24T22:01:45.559Z,23.30
2023-08-24T22:04:13.019Z,23.30
2023-08-24T22:06:41.014Z,23.30
2023-08-24T22:09:08.224Z,23.40
2023-08-24T22:11:35.400Z,23.40
2023-08-24T22:14:02.523Z,23.40
2023-08-24T22:16:30.272Z,23.40
2023-08-24T22:18:57.478Z,23.40
2023-08-24T22:21:27.494Z,23.40
2023-08-24T22:23:54.676Z,23.30
2023-08-24T22:26:22.339Z,23.30
2023-08-24T22:28:49.458Z,23.30
2023-08-24T22:31:16.593Z,23.30
2023-08-24T22:33:43.875Z,23.30
2023-08-24T22:36:11.020Z,23.40
2023-08-24T22:38:38.083Z,23.40
2023-08-24T22:41:05.291Z,23.40
2023-08-24T22:43:32.542Z,23.40
2023-08-24T22:45:59.920Z,23.30
2023-08-24T22:48:27.729Z,23.20
2023-08-24T22:50:54.906Z,23.10
2023-08-24T22:53:22.120Z,23.10
2023-08-24T22:55:50.250Z,23.20
2023-08-24T22:58:17.467Z,23.20
2023-08-24T23:00:44.575Z,23.20
2023-08-24T23:03:12.833Z,23.20
2023-08-24T23:05:41.338Z,23.40
2023-08-24T23:08:08.685Z,23.40
2023-08-24T23:10:35.824Z,23.30
2023-08-24T23:13:03.101Z,23.40
2023-08-24T23:15:30.262Z,23.20
2023-08-24T23:17:57.634Z,23.20
2023-08-24T23:20:24.905Z,23.00
2023-08-24T23:22:52.010Z,22.90
2023-08-24T23:25:19.145Z,22.90
2023-08-24T23:27:46.250Z,22.90
2023-08-24T23:30:14.285Z,23.00
2023-08-24T23:32:41.544Z,22.90
2023-08-24T23:35:09.700Z,22.80
2023-08-24T23:37:38.782Z,22.80
2023-08-24T23:40:06.978Z,22.90
2023-08-24T23:42:34.140Z,22.80
2023-08-24T23:45:01.198Z,22.90
2023-08-24T23:47:28.607Z,22.90
2023-08-24T23:49:55.842Z,22.80
2023-08-24T23:52:22.913Z,22.90
2023-08-24T23:54:50.427Z,23.00
2023-08-24T23:57:19.385Z,23.00
2023-08-24T23:59:46.603Z,23.10
